createdAt,value
2017-06-24T00:00:46.623Z,63.37
2017-06-24T00:03:14.029Z,65.19
2017-06-24T00:05:41.424Z,65.14
2017-06-24T00:08:08.827Z,67.01
2017-06-24T00:10:36.215Z,67.84
2017-06-24T00:13:03.619Z,67.46
2017-06-24T00:15:31.017Z,67.46
2017-06-24T00:17:58.419Z,67.19
2017-06-24T00:20:25.810Z,67.18
2017-06-24T00:22:53.227Z,67.63
2017-06-24T00:25:20.618Z,67.69
2017-06-24T00:27:48.014Z,67.68
2017-06-24T00:30:15.427Z,67.06
2017-06-24T00:32:42.832Z,66.60
2017-06-24T00:35:10.227Z,67.16
2017-06-24T00:37:37.623Z,66.98
2017-06-24T00:40:05.036Z,67.87
2017-06-24T00:42:32.427Z,67.30
2017-06-24T00:44:59.820Z,66.98
2017-06-24T00:47:27.215Z,66.19
2017-06-24T00:49:54.625Z,66.30
2017-06-24T00:52:22.011Z,66.43
2017-06-24T00:54:49.418Z,66.35
2017-06-24T00:57:16.811Z,65.79
2017-06-24T00:59:44.215Z,65.96
2017-06-24T01:02:11.619Z,66.18
2017-06-24T01:04:39.018Z,66.77
2017-06-24T01:07:06.415Z,65.81
2017-06-24T01:09:33.822Z,65.18
2017-06-24T01:12:01.218Z,66.10
2017-06-24T01:14:28.619Z,66.08
2017-06-24T01:16:56.028Z,66.68
2017-06-24T01:19:23.427Z,66.80
2017-06-24T01:21:50.823Z,66.91
2017-06-24T01:24:18.223Z,66.88
2017-06-24T01:26:45.631Z,66.42
2017-06-24T01:29:13.026Z,66.63
2017-06-24T01:31:40.418Z,66.07
2017-06-24T01:34:07.821Z,65.30
2017-06-24T01:36:35.212Z,65.90
2017-06-24T01:39:02.610Z,64.89
2017-06-24T01:41:30.037Z,65.01
2017-06-24T01:43:57.532Z,64.37
2017-06-24T01:46:25.251Z,64.27
2017-06-24T01:48:52.644Z,63.42
2017-06-24T01:51:20.043Z,63.35
2017-06-24T01:53:47.444Z,63.82
2017-06-24T01:56:14.846Z,63.35
2017-06-24T01:58:42.555Z,63.39
2017-06-24T02:01:09.950Z,62.58
2017-06-24T02:03:37.355Z,62.73
2017-06-24T02:06:04.755Z,62.99
2017-06-24T02:08:32.158Z,63.17
2017-06-24T02:10:59.563Z,63.62
2017-06-24T02:13:26.959Z,63.57
2017-06-24T02:15:54.357Z,63.07
2017-06-24T02:18:21.748Z,64.45
2017-06-24T02:20:49.153Z,64.18
2017-06-24T02:23:16.547Z,64.55
2017-06-24T02:25:43.951Z,64.36
2017-06-24T02:28:11.474Z,64.39
2017-06-24T02:30:38.935Z,64.03
2017-06-24T02:33:06.331Z,64.55
2017-06-24T02:35:33.736Z,64.12
2017-06-24T02:38:01.137Z,63.72
2017-06-24T02:40:28.536Z,64.04
2017-06-24T02:42:55.939Z,63.49
2017-06-24T02:45:23.349Z,63.58
2017-06-24T02:47:50.747Z,63.40
2017-06-24T02:50:18.154Z,63.22
2017-06-24T02:52:46.352Z,62.84
2017-06-24T02:55:13.767Z,63.19
2017-06-24T02:57:41.183Z,63.21
2017-06-24T03:00:08.586Z,63.41
2017-06-24T03:02:35.994Z,62.87
2017-06-24T03:05:03.388Z,63.34
2017-06-24T03:07:30.794Z,62.96
2017-06-24T03:09:58.239Z,62.93
2017-06-24T03:12:37.305Z,62.87
2017-06-24T03:15:04.694Z,62.73
2017-06-24T03:17:32.101Z,62.77
2017-06-24T03:19:59.491Z,62.53
2017-06-24T03:22:26.902Z,62.55
2017-06-24T03:24:54.298Z,62.63
2017-06-24T03:27:21.699Z,62.48
2017-06-24T03:29:49.098Z,62.47
2017-06-24T03:32:16.500Z,62.48
2017-06-24T03:34:43.913Z,62.85
2017-06-24T03:37:11.359Z,62.52
2017-06-24T03:39:38.766Z,61.98
2017-06-24T03:42:06.168Z,61.85
2017-06-24T03:44:33.560Z,62.56
2017-06-24T03:47:00.974Z,62.08
2017-06-24T03:49:28.359Z,62.75
2017-06-24T03:51:55.759Z,63.12
2017-06-24T03:54:23.152Z,63.46
2017-06-24T03:56:50.817Z,63.83
2017-06-24T03:59:18.199Z,63.60
2017-06-24T04:01:45.595Z,64.44
2017-06-24T04:04:12.986Z,64.45
2017-06-24T04:06:40.390Z,65.00
2017-06-24T04:09:07.788Z,65.90
2017-06-24T04:11:35.276Z,65.62
2017-06-24T04:14:02.679Z,65.92
2017-06-24T04:16:30.070Z,65.96
2017-06-24T04:18:57.471Z,66.57
2017-06-24T04:21:24.866Z,67.24
2017-06-24T04:23:52.271Z,67.97
2017-06-24T04:26:19.669Z,66.96
2017-06-24T04:28:47.063Z,67.15
2017-06-24T04:31:14.464Z,67.27
2017-06-24T04:33:41.866Z,67.21
2017-06-24T04:36:09.267Z,67.41
2017-06-24T04:38:36.686Z,67.78
2017-06-24T04:41:04.082Z,67.62
2017-06-24T04:43:31.482Z,67.93
2017-06-24T04:45:58.888Z,67.80
2017-06-24T04:48:26.282Z,67.53
2017-06-24T04:50:53.683Z,67.30
2017-06-24T04:53:21.082Z,66.93
2017-06-24T04:55:48.479Z,66.95
2017-06-24T04:58:15.886Z,66.70
2017-06-24T05:00:43.281Z,66.82
2017-06-24T05:03:10.678Z,67.19
2017-06-24T05:05:38.071Z,67.06
2017-06-24T05:08:05.483Z,66.76
2017-06-24T05:10:32.870Z,66.37
2017-06-24T05:13:00.274Z,66.08
2017-06-24T05:15:27.673Z,65.66
2017-06-24T05:17:55.340Z,65.88
2017-06-24T05:20:22.735Z,65.47
2017-06-24T05:22:50.151Z,65.42
2017-06-24T05:25:17.551Z,66.09
2017-06-24T05:27:44.956Z,65.50
2017-06-24T05:30:12.366Z,65.29
2017-06-24T05:32:39.747Z,65.19
2017-06-24T05:35:07.148Z,64.87
2017-06-24T05:37:34.546Z,65.05
2017-06-24T05:40:01.947Z,64.91
2017-06-24T05:42:29.340Z,64.84
2017-06-24T05:44:56.741Z,64.47
2017-06-24T05:47:24.136Z,64.79
2017-06-24T05:49:51.543Z,65.07
2017-06-24T05:52:18.941Z,64.34
2017-06-24T05:54:46.341Z,64.55
2017-06-24T05:57:13.734Z,64.19
2017-06-24T05:59:41.139Z,64.17
2017-06-24T06:02:08.531Z,64.04
2017-06-24T06:04:35.928Z,64.73
2017-06-24T06:07:03.328Z,65.00
2017-06-24T06:09:30.735Z,65.67
2017-06-24T06:11:58.130Z,65.90
2017-06-24T06:14:25.522Z,65.43
2017-06-24T06:16:52.925Z,65.98
2017-06-24T06:19:20.323Z,65.19
2017-06-24T06:21:47.723Z,65.31
2017-06-24T06:24:15.122Z,65.53
2017-06-24T06:26:42.520Z,65.81
2017-06-24T06:29:09.919Z,66.08
2017-06-24T06:31:37.322Z,66.08
2017-06-24T06:34:04.719Z,65.92
2017-06-24T06:36:32.112Z,66.13
2017-06-24T06:38:59.507Z,65.53
2017-06-24T06:41:26.906Z,65.50
2017-06-24T06:43:54.311Z,65.38
2017-06-24T06:46:21.728Z,65.59
2017-06-24T06:48:49.127Z,66.48
2017-06-24T06:51:16.847Z,67.23
2017-06-24T06:53:44.246Z,67.99
2017-06-24T06:56:11.647Z,68.12
2017-06-24T06:58:39.043Z,69.01
2017-06-24T07:01:06.451Z,68.64
2017-06-24T07:03:33.852Z,69.32
2017-06-24T07:06:01.251Z,69.19
2017-06-24T07:08:28.940Z,69.03
2017-06-24T07:10:56.345Z,69.41
2017-06-24T07:13:23.740Z,69.76
2017-06-24T07:15:51.143Z,70.16
2017-06-24T07:18:18.539Z,71.01
2017-06-24T07:20:45.942Z,70.77
2017-06-24T07:23:13.340Z,70.80
2017-06-24T07:25:40.742Z,71.40
2017-06-24T07:28:08.151Z,71.13
2017-06-24T07:30:35.550Z,70.49
2017-06-24T07:33:02.961Z,70.57
2017-06-24T07:35:30.363Z,70.61
2017-06-24T07:37:57.763Z,69.73
2017-06-24T07:40:25.163Z,69.84
2017-06-24T07:42:52.554Z,69.00
2017-06-24T07:45:19.959Z,68.96
2017-06-24T07:47:47.359Z,69.02
2017-06-24T07:50:14.772Z,68.50
2017-06-24T07:52:42.162Z,68.41
2017-06-24T07:55:09.556Z,68.25
2017-06-24T07:57:36.955Z,68.26
2017-06-24T08:00:04.348Z,68.26
2017-06-24T08:02:31.747Z,68.68
2017-06-24T08:04:59.143Z,68.77
2017-06-24T08:07:26.544Z,68.55
2017-06-24T08:09:53.939Z,67.72
2017-06-24T08:12:21.344Z,68.32
2017-06-24T08:14:48.756Z,67.35
2017-06-24T08:17:16.154Z,67.20
2017-06-24T08:19:43.555Z,66.46
2017-06-24T08:22:10.956Z,66.71
2017-06-24T08:24:38.347Z,66.33
2017-06-24T08:27:05.758Z,67.02
2017-06-24T08:29:33.957Z,67.02
2017-06-24T08:32:01.447Z,67.43
2017-06-24T08:34:28.851Z,66.96
2017-06-24T08:36:56.254Z,67.04
2017-06-24T08:39:23.667Z,67.32
2017-06-24T08:41:51.076Z,67.36
2017-06-24T08:46:52.284Z,66.91
2017-06-24T08:49:19.683Z,66.35
2017-06-24T08:51:47.083Z,66.39
2017-06-24T08:54:14.479Z,65.76
2017-06-24T08:56:41.879Z,65.48
2017-06-24T08:59:09.274Z,65.65
2017-06-24T09:01:36.928Z,65.53
2017-06-24T09:04:04.322Z,64.98
2017-06-24T09:06:31.719Z,64.81
2017-06-24T09:08:59.127Z,65.43
2017-06-24T09:11:26.520Z,65.31
2017-06-24T09:13:53.929Z,65.65
2017-06-24T09:16:21.323Z,66.29
2017-06-24T09:18:48.726Z,66.27
2017-06-24T09:21:16.134Z,66.18
2017-06-24T09:23:43.539Z,66.33
2017-06-24T09:26:10.950Z,66.37
2017-06-24T09:28:38.351Z,66.45
2017-06-24T09:31:05.759Z,67.63
2017-06-24T09:33:33.167Z,69.52
2017-06-24T09:36:00.571Z,70.99
2017-06-24T09:38:27.982Z,71.72
2017-06-24T09:40:55.374Z,71.79
2017-06-24T09:43:22.775Z,72.66
2017-06-24T09:45:50.175Z,71.87
2017-06-24T09:48:17.579Z,71.34
2017-06-24T09:50:44.975Z,72.41
2017-06-24T09:53:12.377Z,71.56
2017-06-24T09:55:39.782Z,71.63
2017-06-24T09:58:07.187Z,72.12
2017-06-24T10:00:34.591Z,71.82
2017-06-24T10:03:01.995Z,72.39
2017-06-24T10:05:29.391Z,72.70
2017-06-24T10:07:56.795Z,73.40
2017-06-24T10:10:24.195Z,73.33
2017-06-24T10:12:51.599Z,73.76
2017-06-24T10:15:18.991Z,74.80
2017-06-24T10:17:46.401Z,74.12
2017-06-24T10:20:13.810Z,74.14
2017-06-24T10:22:41.210Z,75.11
2017-06-24T10:25:08.611Z,74.33
2017-06-24T10:27:36.014Z,74.27
2017-06-24T10:30:03.441Z,74.18
2017-06-24T10:32:30.835Z,74.28
2017-06-24T10:34:58.239Z,75.17
2017-06-24T10:37:25.863Z,74.23
2017-06-24T10:39:53.271Z,74.06
2017-06-24T10:42:20.672Z,73.17
2017-06-24T10:44:48.071Z,73.32
2017-06-24T10:47:15.471Z,72.24
2017-06-24T10:49:42.870Z,71.88
2017-06-24T10:52:10.275Z,72.17
2017-06-24T10:54:37.672Z,72.01
2017-06-24T10:57:05.083Z,72.20
2017-06-24T10:59:32.483Z,72.26
2017-06-24T11:01:59.886Z,72.94
2017-06-24T11:04:27.290Z,71.76
2017-06-24T11:06:54.688Z,71.30
2017-06-24T11:09:22.092Z,71.28
2017-06-24T11:11:49.492Z,70.82
2017-06-24T11:14:16.894Z,71.34
2017-06-24T11:16:44.299Z,71.28
2017-06-24T11:19:11.708Z,71.37
2017-06-24T11:21:39.107Z,70.92
2017-06-24T11:24:06.515Z,71.07
2017-06-24T11:26:33.915Z,70.74
2017-06-24T11:29:01.337Z,70.06
2017-06-24T11:31:28.736Z,70.46
2017-06-24T11:33:56.135Z,70.30
2017-06-24T11:36:23.543Z,70.48
2017-06-24T11:38:50.943Z,70.45
2017-06-24T11:41:18.355Z,70.56
2017-06-24T11:43:45.755Z,70.37
2017-06-24T11:46:13.162Z,70.13
2017-06-24T11:48:40.564Z,70.34
2017-06-24T11:51:08.304Z,69.52
2017-06-24T11:53:35.700Z,69.11
2017-06-24T11:56:03.108Z,68.93
2017-06-24T11:58:30.510Z,69.25
2017-06-24T12:00:57.919Z,69.05
2017-06-24T12:03:25.327Z,69.24
2017-06-24T12:05:52.732Z,69.38
2017-06-24T12:08:20.395Z,69.85
2017-06-24T12:10:47.794Z,69.40
2017-06-24T12:13:15.200Z,68.59
2017-06-24T12:15:42.594Z,68.68
2017-06-24T12:18:10.015Z,68.53
2017-06-24T12:20:37.407Z,69.04
2017-06-24T12:23:04.811Z,68.93
2017-06-24T12:25:32.211Z,68.75
2017-06-24T12:27:59.622Z,68.98
2017-06-24T12:30:27.020Z,68.83
2017-06-24T12:32:54.571Z,68.98
2017-06-24T12:35:21.990Z,68.82
2017-06-24T12:37:49.409Z,68.48
2017-06-24T12:40:16.805Z,68.79
2017-06-24T12:42:44.199Z,68.47
2017-06-24T12:45:11.617Z,68.85
2017-06-24T12:47:39.002Z,69.15
2017-06-24T12:50:06.418Z,69.73
2017-06-24T12:52:33.803Z,69.16
2017-06-24T12:55:01.242Z,69.15
2017-06-24T12:57:28.643Z,69.42
2017-06-24T12:59:56.051Z,69.25
2017-06-24T13:02:23.454Z,69.47
2017-06-24T13:04:50.856Z,69.74
2017-06-24T13:07:18.247Z,69.55
2017-06-24T13:09:45.646Z,69.31
2017-06-24T13:12:13.038Z,69.64
2017-06-24T13:14:40.439Z,69.71
2017-06-24T13:17:07.834Z,69.85
2017-06-24T13:19:35.239Z,69.67
2017-06-24T13:22:02.631Z,70.19
2017-06-24T13:24:30.319Z,69.72
2017-06-24T13:26:57.715Z,70.03
2017-06-24T13:29:25.123Z,69.21
2017-06-24T13:31:52.511Z,68.90
2017-06-24T13:34:19.920Z,69.86
2017-06-24T13:36:47.315Z,69.89
2017-06-24T13:39:14.719Z,69.63
2017-06-24T13:41:42.115Z,69.82
2017-06-24T13:44:09.523Z,68.92
2017-06-24T13:46:36.919Z,68.89
2017-06-24T13:49:04.340Z,69.04
2017-06-24T13:51:31.738Z,68.89
2017-06-24T13:53:59.133Z,68.31
2017-06-24T13:56:26.532Z,68.48
2017-06-24T13:58:53.931Z,68.72
2017-06-24T14:01:21.338Z,69.07
2017-06-24T14:03:48.731Z,69.13
2017-06-24T14:06:16.139Z,68.86
2017-06-24T14:08:43.531Z,68.88
2017-06-24T14:11:10.935Z,68.98
2017-06-24T14:13:38.322Z,69.25
2017-06-24T14:16:05.987Z,69.18
2017-06-24T14:18:33.386Z,69.05
2017-06-24T14:21:00.799Z,69.51
2017-06-24T14:23:28.207Z,69.37
2017-06-24T14:25:55.611Z,69.22
2017-06-24T14:28:23.015Z,69.48
2017-06-24T14:30:50.425Z,69.58
2017-06-24T14:33:18.082Z,69.77
2017-06-24T14:35:45.494Z,69.25
2017-06-24T14:38:12.897Z,69.14
2017-06-24T14:40:40.316Z,68.66
2017-06-24T14:43:07.699Z,68.86
2017-06-24T14:45:35.115Z,68.35
2017-06-24T14:48:02.546Z,68.05
2017-06-24T14:50:29.923Z,67.94
2017-06-24T14:52:57.322Z,67.77
2017-06-24T14:55:24.723Z,67.56
2017-06-24T14:57:52.122Z,67.46
2017-06-24T15:00:19.527Z,67.15
2017-06-24T15:02:46.923Z,67.07
2017-06-24T15:05:14.316Z,66.89
2017-06-24T15:07:41.718Z,67.27
2017-06-24T15:10:09.110Z,66.75
2017-06-24T15:12:36.515Z,66.48
2017-06-24T15:15:03.918Z,66.32
2017-06-24T15:17:31.315Z,66.63
2017-06-24T15:19:58.946Z,66.34
2017-06-24T15:22:26.352Z,65.93
2017-06-24T15:24:53.747Z,65.82
2017-06-24T15:27:21.151Z,65.60
2017-06-24T15:29:48.541Z,65.23
2017-06-24T15:32:15.935Z,65.27
2017-06-24T15:34:43.336Z,65.28
2017-06-24T15:37:10.746Z,65.16
2017-06-24T15:39:38.135Z,65.14
2017-06-24T15:42:05.539Z,64.98
2017-06-24T15:44:32.935Z,64.82
2017-06-24T15:47:00.335Z,64.91
2017-06-24T15:49:27.731Z,65.14
2017-06-24T15:51:55.127Z,65.11
2017-06-24T15:54:22.519Z,65.30
2017-06-24T15:56:52.467Z,65.16
2017-06-24T15:59:19.847Z,64.87
2017-06-24T16:01:47.252Z,64.99
2017-06-24T16:04:14.643Z,65.45
2017-06-24T16:06:42.043Z,65.18
2017-06-24T16:09:09.439Z,65.28
2017-06-24T16:11:36.838Z,65.23
2017-06-24T16:14:04.239Z,65.15
2017-06-24T16:16:31.631Z,65.28
2017-06-24T16:18:59.023Z,65.11
2017-06-24T16:21:26.436Z,65.38
2017-06-24T16:23:53.848Z,65.73
2017-06-24T16:26:21.239Z,65.98
2017-06-24T16:28:48.631Z,66.31
2017-06-24T16:31:16.023Z,66.08
2017-06-24T16:33:43.423Z,65.66
2017-06-24T16:36:10.819Z,65.56
2017-06-24T16:38:38.227Z,65.84
2017-06-24T16:41:05.618Z,66.28
2017-06-24T16:43:33.017Z,66.37
2017-06-24T16:46:00.407Z,66.30
2017-06-24T16:48:27.809Z,66.39
2017-06-24T16:50:55.195Z,66.51
2017-06-24T16:53:22.595Z,66.63
2017-06-24T16:55:49.991Z,66.80
2017-06-24T16:58:17.387Z,66.98
2017-06-24T17:00:44.779Z,67.06
2017-06-24T17:03:13.094Z,67.27
2017-06-24T17:05:40.479Z,67.42
2017-06-24T17:08:07.888Z,67.30
2017-06-24T17:10:35.276Z,67.05
2017-06-24T17:13:02.679Z,67.11
2017-06-24T17:15:30.071Z,67.16
2017-06-24T17:17:57.466Z,67.41
2017-06-24T17:20:24.847Z,67.06
2017-06-24T17:22:52.247Z,67.05
2017-06-24T17:25:19.855Z,66.40
2017-06-24T17:27:47.256Z,66.93
2017-06-24T17:30:14.650Z,66.82
2017-06-24T17:32:42.036Z,66.57
2017-06-24T17:35:09.430Z,66.40
2017-06-24T17:37:36.816Z,66.66
2017-06-24T17:40:04.208Z,66.15
2017-06-24T17:42:31.595Z,66.12
2017-06-24T17:44:58.995Z,66.50
2017-06-24T17:47:26.387Z,66.39
2017-06-24T17:49:53.788Z,66.33
2017-06-24T17:52:21.388Z,66.65
2017-06-24T17:54:48.787Z,67.13
2017-06-24T17:57:16.183Z,66.50
2017-06-24T17:59:43.575Z,66.77
2017-06-24T18:02:10.979Z,67.30
2017-06-24T18:04:38.375Z,68.46
2017-06-24T18:07:05.771Z,69.19
2017-06-24T18:09:33.173Z,70.34
2017-06-24T18:12:00.583Z,70.95
2017-06-24T18:14:28.198Z,70.86
2017-06-24T18:16:55.595Z,70.74
2017-06-24T18:19:23.003Z,71.64
2017-06-24T18:21:50.411Z,71.62
2017-06-24T18:24:17.831Z,72.55
2017-06-24T18:26:45.231Z,72.43
2017-06-24T18:29:12.630Z,72.74
2017-06-24T18:31:40.047Z,73.82
2017-06-24T18:34:07.442Z,74.72
2017-06-24T18:36:34.853Z,75.36
2017-06-24T18:39:02.246Z,75.00
2017-06-24T18:41:29.658Z,75.72
2017-06-24T18:43:57.059Z,76.61
2017-06-24T18:46:24.467Z,76.93
2017-06-24T18:48:51.859Z,76.92
2017-06-24T18:51:19.271Z,76.27
2017-06-24T18:53:46.666Z,76.57
2017-06-24T18:56:14.079Z,76.67
2017-06-24T18:58:41.479Z,75.89
2017-06-24T19:01:08.892Z,75.24
2017-06-24T19:03:36.286Z,75.89
2017-06-24T19:06:03.699Z,75.35
2017-06-24T19:08:31.099Z,75.93
2017-06-24T19:10:58.510Z,76.54
2017-06-24T19:13:25.913Z,76.38
2017-06-24T19:15:53.328Z,76.73
2017-06-24T19:18:20.723Z,76.92
2017-06-24T19:20:48.131Z,75.91
2017-06-24T19:23:15.527Z,75.88
2017-06-24T19:25:42.940Z,75.45
2017-06-24T19:28:10.343Z,75.28
2017-06-24T19:30:37.751Z,75.06
2017-06-24T19:33:05.147Z,75.05
2017-06-24T19:35:32.556Z,75.27
2017-06-24T19:37:59.946Z,75.11
2017-06-24T19:40:27.350Z,74.60
2017-06-24T19:42:54.752Z,74.95
2017-06-24T19:45:22.155Z,74.66
2017-06-24T19:47:49.563Z,74.64
2017-06-24T19:50:16.967Z,75.20
2017-06-24T19:52:44.375Z,74.33
2017-06-24T19:55:11.774Z,74.14
2017-06-24T19:57:39.183Z,74.04
2017-06-24T20:00:06.588Z,73.43
2017-06-24T20:02:33.991Z,73.60
2017-06-24T20:05:01.395Z,73.28
2017-06-24T20:07:28.799Z,72.90
2017-06-24T20:09:56.192Z,72.84
2017-06-24T20:12:23.609Z,72.88
2017-06-24T20:14:51.216Z,72.48
2017-06-24T20:17:18.640Z,72.49
2017-06-24T20:19:46.047Z,70.43
2017-06-24T20:22:13.451Z,71.76
2017-06-24T20:24:40.846Z,71.87
2017-06-24T20:27:08.248Z,72.17
2017-06-24T20:29:35.646Z,73.00
2017-06-24T20:32:03.054Z,72.99
2017-06-24T20:34:30.464Z,73.38
2017-06-24T20:36:57.863Z,73.58
2017-06-24T20:39:25.259Z,73.13
2017-06-24T20:41:52.891Z,73.48
2017-06-24T20:44:20.290Z,74.07
2017-06-24T20:46:47.703Z,74.38
2017-06-24T20:49:15.101Z,75.12
2017-06-24T20:51:42.532Z,75.82
2017-06-24T20:54:09.922Z,75.53
2017-06-24T20:56:37.318Z,75.54
2017-06-24T20:59:04.722Z,75.12
2017-06-24T21:01:32.122Z,74.47
2017-06-24T21:03:59.518Z,74.60
2017-06-24T21:06:27.591Z,74.02
2017-06-24T21:08:55.002Z,74.17
2017-06-24T21:11:22.682Z,74.00
2017-06-24T21:13:50.095Z,73.86
2017-06-24T21:16:17.513Z,74.03
2017-06-24T21:18:44.894Z,74.33
2017-06-24T21:21:12.295Z,74.35
2017-06-24T21:23:39.728Z,74.37
2017-06-24T21:26:07.123Z,74.41
2017-06-24T21:28:34.530Z,74.80
2017-06-24T21:31:01.930Z,74.39
2017-06-24T21:33:29.339Z,74.49
2017-06-24T21:35:56.735Z,74.20
2017-06-24T21:38:24.139Z,73.43
2017-06-24T21:40:51.542Z,73.28
2017-06-24T21:43:18.943Z,74.01
2017-06-24T21:45:46.346Z,73.83
2017-06-24T21:48:13.764Z,73.91
2017-06-24T21:50:41.159Z,73.93
2017-06-24T21:53:08.563Z,74.22
2017-06-24T21:55:35.959Z,75.16
2017-06-24T21:58:03.367Z,75.46
2017-06-24T22:00:30.762Z,75.77
2017-06-24T22:02:58.166Z,75.93
2017-06-24T22:05:25.567Z,76.96
2017-06-24T22:07:52.967Z,76.59
2017-06-24T22:10:20.371Z,76.41
2017-06-24T22:12:47.771Z,76.44
2017-06-24T22:15:15.180Z,76.13
2017-06-24T22:17:42.566Z,76.44
2017-06-24T22:20:09.976Z,77.10
2017-06-24T22:22:37.372Z,76.77
2017-06-24T22:25:04.779Z,75.97
2017-06-24T22:27:32.170Z,75.79
2017-06-24T22:29:59.578Z,75.80
2017-06-24T22:32:26.979Z,75.84
2017-06-24T22:34:54.391Z,75.57
2017-06-24T22:37:22.042Z,74.59
2017-06-24T22:39:49.443Z,74.64
2017-06-24T22:42:16.832Z,73.71
2017-06-24T22:44:44.503Z,73.92
2017-06-24T22:47:11.900Z,74.89
2017-06-24T22:49:39.303Z,74.54
2017-06-24T22:52:06.707Z,74.76
2017-06-24T22:54:34.110Z,74.69
2017-06-24T22:57:01.502Z,72.83
2017-06-24T22:59:28.907Z,72.32
2017-06-24T23:01:56.319Z,73.74
2017-06-24T23:04:23.722Z,72.93
2017-06-24T23:06:51.119Z,71.84
2017-06-24T23:09:18.523Z,73.21
2017-06-24T23:11:45.923Z,72.67
2017-06-24T23:14:13.327Z,73.42
2017-06-24T23:16:40.739Z,73.50
2017-06-24T23:19:08.134Z,73.02
2017-06-24T23:21:35.534Z,72.58
2017-06-24T23:24:02.936Z,73.64
2017-06-24T23:26:30.338Z,74.37
2017-06-24T23:28:57.755Z,74.59
2017-06-24T23:31:25.162Z,74.57
2017-06-24T23:33:52.562Z,75.25
2017-06-24T23:36:19.977Z,75.76
2017-06-24T23:38:47.363Z,74.61
2017-06-24T23:41:14.762Z,75.49
2017-06-24T23:43:42.182Z,75.61
2017-06-24T23:46:09.568Z,76.29
2017-06-24T23:48:36.966Z,76.11
2017-06-24T23:51:04.599Z,76.18
2017-06-24T23:53:31.997Z,76.39
2017-06-24T23:55:59.398Z,76.15
2017-06-24T23:58:26.791Z,76.20
